createdAt,value
2022-09-23T00:01:39.012Z,100896.59
2022-09-23T00:04:08.658Z,100893.94
2022-09-23T00:06:44.050Z,100894.00
2022-09-23T00:09:13.686Z,100888.69
2022-09-23T00:11:43.183Z,100899.22
2022-09-23T00:14:13.102Z,100894.88
2022-09-23T00:16:42.785Z,100891.50
2022-09-23T00:19:12.353Z,100891.44
2022-09-23T00:21:44.963Z,100897.56
2022-09-23T00:24:15.845Z,100887.03
2022-09-23T00:26:45.896Z,100884.38
2022-09-23T00:29:16.050Z,100880.94
2022-09-23T00:31:45.618Z,100878.06
2022-09-23T00:34:15.155Z,100881.72
2022-09-23T00:36:47.341Z,100885.16
2022-09-23T00:39:16.870Z,100883.38
2022-09-23T00:41:46.415Z,100877.16
2022-09-23T00:44:50.525Z,100876.25
2022-09-23T00:47:23.920Z,100871.91
2022-09-23T00:50:02.040Z,100870.97
2022-09-23T00:52:34.905Z,100876.16
2022-09-23T00:55:08.015Z,100870.06
2022-09-23T00:57:37.983Z,100856.84
2022-09-23T01:00:08.949Z,100864.69
2022-09-23T01:02:39.667Z,100863.72
2022-09-23T01:05:11.162Z,100868.06
2022-09-23T01:07:43.271Z,100868.06
2022-09-23T01:10:14.247Z,100867.97
2022-09-23T01:13:04.969Z,100865.34
2022-09-23T01:15:41.809Z,100859.06
2022-09-23T01:18:17.483Z,100861.69
2022-09-23T01:21:00.033Z,100858.16
2022-09-23T01:24:02.364Z,100849.38
2022-09-23T01:26:51.860Z,100860.03
2022-09-23T01:29:40.162Z,100856.38
2022-09-23T01:32:18.495Z,100849.38
2022-09-23T01:34:51.284Z,100842.34
2022-09-23T01:37:26.672Z,100837.22
2022-09-23T01:40:03.080Z,100840.72
2022-09-23T01:42:36.678Z,100841.56
2022-09-23T01:45:10.941Z,100834.53
2022-09-23T01:47:45.293Z,100841.63
2022-09-23T01:50:29.953Z,100830.25
2022-09-23T01:53:02.901Z,100836.41
2022-09-23T01:55:34.381Z,100834.75
2022-09-23T01:58:07.736Z,100841.75
2022-09-23T02:00:40.712Z,100833.88
2022-09-23T02:03:17.217Z,100836.50
2022-09-23T02:05:49.404Z,100838.28
2022-09-23T02:08:22.484Z,100840.88
2022-09-23T02:10:56.157Z,100839.09
2022-09-23T02:13:32.635Z,100830.25
2022-09-23T02:16:06.425Z,100827.63
2022-09-23T02:18:46.137Z,100828.53
2022-09-23T02:21:17.489Z,100825.91
2022-09-23T02:23:50.879Z,100826.72
2022-09-23T02:26:23.152Z,100824.06
2022-09-23T02:28:57.363Z,100819.72
2022-09-23T02:31:34.353Z,100807.50
2022-09-23T02:34:15.748Z,100811.13
2022-09-23T02:36:50.719Z,100808.53
2022-09-23T02:39:20.978Z,100799.78
2022-09-23T02:41:55.828Z,100805.84
2022-09-23T02:44:25.745Z,100793.56
2022-09-23T02:46:56.795Z,100793.63
2022-09-23T02:49:30.299Z,100791.00
2022-09-23T02:52:04.861Z,100796.19
2022-09-23T02:54:35.417Z,100794.41
2022-09-23T02:57:07.400Z,100783.03
2022-09-23T02:59:37.588Z,100782.84
2022-09-23T03:02:18.142Z,100784.47
2022-09-23T03:04:58.696Z,100784.97
2022-09-23T03:07:33.083Z,100777.75
2022-09-23T03:10:07.833Z,100775.97
2022-09-23T03:12:42.092Z,100777.47
2022-09-23T03:15:21.691Z,100770.50
2022-09-23T03:17:58.959Z,100773.88
2022-09-23T03:20:34.313Z,100776.50
2022-09-23T03:23:06.614Z,100778.34
2022-09-23T03:25:40.162Z,100779.31
2022-09-23T03:28:10.477Z,100774.06
2022-09-23T03:30:40.717Z,100782.03
2022-09-23T03:33:12.768Z,100770.69
2022-09-23T03:36:02.578Z,100776.88
2022-09-23T03:38:34.984Z,100769.13
2022-09-23T03:41:06.109Z,100770.09
2022-09-23T03:43:38.827Z,100765.84
2022-09-23T03:46:10.216Z,100758.94
2022-09-23T03:48:40.756Z,100762.59
2022-09-23T03:51:23.844Z,100767.13
2022-09-23T03:53:53.657Z,100763.69
2022-09-23T03:56:23.196Z,100762.88
2022-09-23T03:58:52.824Z,100765.59
2022-09-23T04:01:22.760Z,100755.94
2022-09-23T04:03:52.416Z,100759.44
2022-09-23T04:06:24.779Z,100750.63
2022-09-23T04:08:54.464Z,100755.25
2022-09-23T04:11:24.004Z,100757.88
2022-09-23T04:13:53.572Z,100755.28
2022-09-23T04:16:23.203Z,100757.13
2022-09-23T04:18:52.790Z,100757.13
2022-09-23T04:21:25.608Z,100757.28
2022-09-23T04:23:55.208Z,100747.66
2022-09-23T04:26:24.794Z,100740.72
2022-09-23T04:28:54.490Z,100739.94
2022-09-23T04:31:24.409Z,100740.06
2022-09-23T04:33:55.230Z,100734.91
2022-09-23T04:36:32.407Z,100734.06
2022-09-23T04:39:02.110Z,100723.59
2022-09-23T04:41:31.856Z,100728.00
2022-09-23T04:44:01.420Z,100728.97
2022-09-23T04:46:31.156Z,100722.03
2022-09-23T04:49:00.783Z,100715.97
2022-09-23T04:51:33.017Z,100719.47
2022-09-23T04:54:02.512Z,100723.91
2022-09-23T04:56:34.398Z,100715.97
2022-09-23T04:59:04.343Z,100714.22
2022-09-23T05:01:36.356Z,100708.13
2022-09-23T05:04:08.590Z,100713.38
2022-09-23T05:06:40.939Z,100708.06
2022-09-23T05:09:11.240Z,100711.84
2022-09-23T05:11:40.813Z,100706.53
2022-09-23T05:14:10.379Z,100707.50
2022-09-23T05:16:40.535Z,100711.13
2022-09-23T05:19:10.148Z,100719.06
2022-09-23T05:21:42.366Z,100717.34
2022-09-23T05:24:11.982Z,100719.97
2022-09-23T05:26:41.485Z,100721.75
2022-09-23T05:29:11.359Z,100721.81
2022-09-23T05:31:41.163Z,100720.09
2022-09-23T05:34:11.173Z,100717.34
2022-09-23T05:36:43.637Z,100719.97
2022-09-23T05:39:13.211Z,100720.81
2022-09-23T05:41:43.483Z,100724.34
2022-09-23T05:44:13.172Z,100724.34
2022-09-23T05:46:42.715Z,100725.25
2022-09-23T05:49:12.339Z,100725.25
2022-09-23T05:51:44.796Z,100723.44
2022-09-23T05:54:14.307Z,100728.59
2022-09-23T05:56:43.931Z,100725.22
2022-09-23T05:59:13.464Z,100728.72
2022-09-23T06:01:43.044Z,100725.25
2022-09-23T06:04:15.233Z,100727.88
2022-09-23T06:06:47.516Z,100723.47
2022-09-23T06:09:17.694Z,100727.78
2022-09-23T06:11:47.257Z,100719.97
2022-09-23T06:14:17.271Z,100717.34
2022-09-23T06:16:46.834Z,100726.09
2022-09-23T06:19:16.435Z,100719.06
2022-09-23T06:21:48.616Z,100728.53
2022-09-23T06:24:21.155Z,100724.13
2022-09-23T06:26:51.870Z,100719.66
2022-09-23T06:29:21.439Z,100718.69
2022-09-23T06:31:52.389Z,100726.38
2022-09-23T06:34:22.203Z,100724.44
2022-09-23T06:36:55.576Z,100721.78
2022-09-23T06:39:25.160Z,100727.03
2022-09-23T06:41:55.372Z,100725.16
2022-09-23T06:44:28.373Z,100721.41
2022-09-23T06:46:58.024Z,100725.38
2022-09-23T06:49:27.649Z,100722.53
2022-09-23T06:51:59.819Z,100721.44
2022-09-23T06:54:30.749Z,100719.41
2022-09-23T06:57:00.285Z,100719.22
2022-09-23T06:59:29.799Z,100725.13
2022-09-23T07:01:59.394Z,100719.59
2022-09-23T07:04:29.506Z,100723.66
2022-09-23T07:07:01.810Z,100723.31
2022-09-23T07:09:31.400Z,100717.78
2022-09-23T07:12:00.960Z,100721.78
2022-09-23T07:14:30.540Z,100719.72
2022-09-23T07:17:00.118Z,100719.28
2022-09-23T07:19:29.720Z,100725.19
2022-09-23T07:22:01.890Z,100726.56
2022-09-23T07:24:31.468Z,100718.13
2022-09-23T07:27:02.088Z,100723.09
2022-09-23T07:29:41.776Z,100723.50
2022-09-23T07:32:15.477Z,100718.63
2022-09-23T07:34:47.152Z,100728.69
2022-09-23T07:37:20.333Z,100724.72
2022-09-23T07:39:51.039Z,100721.47
2022-09-23T07:42:20.581Z,100722.63
2022-09-23T07:44:50.290Z,100724.78
2022-09-23T07:47:19.829Z,100732.28
2022-09-23T07:49:49.348Z,100731.63
2022-09-23T07:52:21.519Z,100730.00
2022-09-23T07:54:51.632Z,100732.94
2022-09-23T07:57:21.398Z,100730.63
2022-09-23T07:59:50.946Z,100722.19
2022-09-23T08:02:20.621Z,100724.28
2022-09-23T08:04:52.120Z,100724.56
2022-09-23T08:07:24.429Z,100726.00
2022-09-23T08:09:54.041Z,100722.91
2022-09-23T08:12:23.548Z,100730.28
2022-09-23T08:14:53.089Z,100720.19
2022-09-23T08:17:22.678Z,100724.16
2022-09-23T08:19:52.244Z,100732.50
2022-09-23T08:22:24.381Z,100725.13
2022-09-23T08:24:56.099Z,100726.53
2022-09-23T08:27:27.608Z,100730.50
2022-09-23T08:29:57.276Z,100731.19
2022-09-23T08:32:26.889Z,100722.09
2022-09-23T08:34:56.899Z,100725.38
2022-09-23T08:37:29.170Z,100733.88
2022-09-23T08:39:58.780Z,100726.41
2022-09-23T08:42:31.560Z,100716.25
2022-09-23T08:45:06.164Z,100722.03
2022-09-23T08:47:43.753Z,100711.16
2022-09-23T08:50:18.072Z,100714.22
2022-09-23T08:52:52.782Z,100713.91
2022-09-23T08:55:24.062Z,100709.03
2022-09-23T08:58:24.632Z,100701.44
2022-09-23T09:01:14.501Z,100711.63
2022-09-23T09:03:49.039Z,100717.22
2022-09-23T09:06:21.773Z,100714.25
2022-09-23T09:08:58.128Z,100712.38
2022-09-23T09:11:34.384Z,100712.03
2022-09-23T09:14:15.354Z,100709.09
2022-09-23T09:17:00.037Z,100716.81
2022-09-23T09:19:45.929Z,100711.44
2022-09-23T09:22:30.500Z,100712.09
2022-09-23T09:25:07.547Z,100702.28
2022-09-23T09:27:38.531Z,100707.31
2022-09-23T09:30:11.689Z,100704.13
2022-09-23T09:32:47.375Z,100711.50
2022-09-23T09:35:23.691Z,100704.13
2022-09-23T09:37:53.703Z,100707.06
2022-09-23T09:40:25.932Z,100703.16
2022-09-23T09:42:55.553Z,100702.06
2022-09-23T09:45:33.847Z,100703.53
2022-09-23T09:48:10.819Z,100701.88
2022-09-23T09:50:49.929Z,100696.97
2022-09-23T09:53:25.498Z,100697.00
2022-09-23T09:56:05.555Z,100699.13
2022-09-23T09:58:43.842Z,100695.06
2022-09-23T10:01:21.432Z,100686.47
2022-09-23T10:03:57.072Z,100688.72
2022-09-23T10:06:29.706Z,100687.41
2022-09-23T10:09:14.480Z,100685.31
2022-09-23T10:12:05.803Z,100693.84
2022-09-23T10:14:36.339Z,100679.44
2022-09-23T10:17:07.868Z,100678.88
2022-09-23T10:19:38.793Z,100681.16
2022-09-23T10:22:20.584Z,100678.84
2022-09-23T10:24:55.361Z,100676.00
2022-09-23T10:27:35.824Z,100673.72
2022-09-23T10:30:07.848Z,100679.63
2022-09-23T10:32:40.573Z,100676.69
2022-09-23T10:35:18.778Z,100672.66
2022-09-23T10:37:49.788Z,100669.50
2022-09-23T10:40:40.369Z,100667.41
2022-09-23T10:43:40.959Z,100667.75
2022-09-23T10:46:25.606Z,100664.16
2022-09-23T10:49:08.982Z,100661.94
2022-09-23T10:51:45.554Z,100657.19
2022-09-23T10:54:22.219Z,100657.06
2022-09-23T10:57:03.941Z,100654.94
2022-09-23T10:59:55.983Z,100657.41
2022-09-23T11:02:52.564Z,100649.97
2022-09-23T11:05:30.592Z,100654.78
2022-09-23T11:08:09.591Z,100644.56
2022-09-23T11:10:59.439Z,100649.09
2022-09-23T11:13:45.400Z,100643.03
2022-09-23T11:16:26.650Z,100637.09
2022-09-23T11:19:17.269Z,100631.03
2022-09-23T11:22:00.516Z,100619.75
2022-09-23T11:24:50.142Z,100617.91
2022-09-23T11:27:26.923Z,100613.84
2022-09-23T11:30:06.300Z,100619.38
2022-09-23T11:32:57.101Z,100611.47
2022-09-23T11:35:28.858Z,100618.06
2022-09-23T11:38:01.032Z,100620.63
2022-09-23T11:40:34.395Z,100614.50
2022-09-23T11:43:07.285Z,100608.63
2022-09-23T11:45:40.121Z,100606.47
2022-09-23T11:48:16.291Z,100606.69
2022-09-23T11:50:49.023Z,100601.75
2022-09-23T11:53:22.518Z,100608.25
2022-09-23T11:55:58.323Z,100606.44
2022-09-23T11:58:31.749Z,100612.00
2022-09-23T12:01:03.842Z,100602.19
2022-09-23T12:03:44.910Z,100598.34
2022-09-23T12:06:18.638Z,100598.97
2022-09-23T12:08:48.197Z,100596.91
2022-09-23T12:11:27.026Z,100593.78
2022-09-23T12:14:00.878Z,100593.22
2022-09-23T12:16:54.503Z,100579.41
2022-09-23T12:19:47.053Z,100594.13
2022-09-23T12:22:27.036Z,100585.16
2022-09-23T12:25:00.686Z,100583.19
2022-09-23T12:27:36.841Z,100582.22
2022-09-23T12:30:09.896Z,100574.22
2022-09-23T12:32:39.477Z,100575.06
2022-09-23T12:35:24.259Z,100571.06
2022-09-23T12:37:54.343Z,100570.56
2022-09-23T12:40:28.350Z,100572.25
2022-09-23T12:43:01.165Z,100571.13
2022-09-23T12:45:41.411Z,100570.13
2022-09-23T12:48:29.900Z,100573.13
2022-09-23T12:51:18.183Z,100568.88
2022-09-23T12:53:56.962Z,100568.03
2022-09-23T12:56:31.690Z,100570.69
2022-09-23T12:59:02.576Z,100566.41
2022-09-23T13:01:38.802Z,100569.31
2022-09-23T13:04:20.997Z,100572.13
2022-09-23T13:07:08.078Z,100564.84
2022-09-23T13:09:42.252Z,100563.03
2022-09-23T13:12:22.269Z,100558.66
2022-09-23T13:14:53.447Z,100566.78
2022-09-23T13:17:34.224Z,100568.59
2022-09-23T13:20:07.032Z,100565.06
2022-09-23T13:23:06.591Z,100568.72
2022-09-23T13:25:38.859Z,100566.03
2022-09-23T13:28:16.572Z,100560.72
2022-09-23T13:30:52.054Z,100547.38
2022-09-23T13:33:28.522Z,100550.97
2022-09-23T13:36:04.352Z,100544.91
2022-09-23T13:38:36.505Z,100553.84
2022-09-23T13:41:07.958Z,100559.31
2022-09-23T13:43:41.528Z,100551.44
2022-09-23T13:46:13.323Z,100551.53
2022-09-23T13:48:43.948Z,100552.84
2022-09-23T13:51:17.854Z,100550.50
2022-09-23T13:53:54.503Z,100553.72
2022-09-23T13:56:24.944Z,100552.75
2022-09-23T13:58:55.871Z,100555.25
2022-09-23T14:01:28.790Z,100547.38
2022-09-23T14:03:58.547Z,100555.38
2022-09-23T14:06:28.668Z,100541.50
2022-09-23T14:09:03.032Z,100546.00
2022-09-23T14:11:35.154Z,100536.66
2022-09-23T14:14:07.800Z,100539.19
2022-09-23T14:16:39.934Z,100534.59
2022-09-23T14:19:09.655Z,100530.34
2022-09-23T14:21:41.088Z,100531.31
2022-09-23T14:24:21.675Z,100527.16
2022-09-23T14:26:53.332Z,100528.13
2022-09-23T14:29:25.441Z,100530.25
2022-09-23T14:32:00.718Z,100526.00
2022-09-23T14:34:44.216Z,100517.28
2022-09-23T14:37:40.675Z,100523.56
2022-09-23T14:40:17.011Z,100525.38
2022-09-23T14:42:48.821Z,100516.53
2022-09-23T14:45:20.954Z,100519.22
2022-09-23T14:47:52.352Z,100515.47
2022-09-23T14:50:36.661Z,100511.09
2022-09-23T14:53:06.350Z,100508.56
2022-09-23T14:55:38.800Z,100509.28
2022-09-23T14:58:09.123Z,100510.00
2022-09-23T15:00:38.754Z,100506.81
2022-09-23T15:03:17.322Z,100502.34
2022-09-23T15:05:49.113Z,100506.72
2022-09-23T15:08:21.305Z,100503.22
2022-09-23T15:10:53.740Z,100498.75
2022-09-23T15:13:26.199Z,100496.91
2022-09-23T15:15:57.019Z,100495.09
2022-09-23T15:18:28.803Z,100488.94
2022-09-23T15:21:00.725Z,100496.91
2022-09-23T15:23:38.981Z,100490.75
2022-09-23T15:26:13.705Z,100491.78
2022-09-23T15:28:43.285Z,100487.31
2022-09-23T15:31:15.833Z,100495.53
2022-09-23T15:33:47.186Z,100484.75
2022-09-23T15:36:20.332Z,100482.22
2022-09-23T15:38:50.270Z,100486.81
2022-09-23T15:41:24.025Z,100485.19
2022-09-23T15:43:55.561Z,100482.53
2022-09-23T15:46:28.243Z,100489.06
2022-09-23T15:49:00.133Z,100491.72
2022-09-23T15:51:30.081Z,100487.38
2022-09-23T15:53:59.878Z,100480.34
2022-09-23T15:56:32.033Z,100474.38
2022-09-23T15:59:01.575Z,100473.63
2022-09-23T16:01:33.294Z,100469.59
2022-09-23T16:04:03.977Z,100476.97
2022-09-23T16:06:34.386Z,100474.50
2022-09-23T16:09:04.008Z,100476.41
2022-09-23T16:11:37.040Z,100476.66
2022-09-23T16:14:06.955Z,100476.53
2022-09-23T16:16:36.695Z,100473.31
2022-09-23T16:19:06.502Z,100479.59
2022-09-23T16:21:36.220Z,100485.16
2022-09-23T16:24:06.394Z,100472.16
2022-09-23T16:26:40.167Z,100480.38
2022-09-23T16:29:09.756Z,100483.22
2022-09-23T16:31:39.376Z,100485.25
2022-09-23T16:34:09.142Z,100481.88
2022-09-23T16:36:41.932Z,100485.56
2022-09-23T16:39:13.990Z,100482.19
2022-09-23T16:41:46.206Z,100479.84
2022-09-23T16:44:16.357Z,100481.66
2022-09-23T16:46:45.938Z,100480.91
2022-09-23T16:49:15.411Z,100478.56
2022-09-23T16:51:44.981Z,100476.22
2022-09-23T16:54:17.326Z,100481.03
2022-09-23T16:56:50.426Z,100471.41
2022-09-23T16:59:20.217Z,100476.22
2022-09-23T17:02:02.728Z,100482.59
2022-09-23T17:04:32.310Z,100479.31
2022-09-23T17:07:01.999Z,100477.78
2022-09-23T17:09:31.840Z,100470.03
2022-09-23T17:12:08.751Z,100473.00
2022-09-23T17:14:38.282Z,100482.91
2022-09-23T17:17:08.014Z,100476.94
2022-09-23T17:19:37.620Z,100481.72
2022-09-23T17:22:07.149Z,100475.66
2022-09-23T17:24:36.701Z,100480.41
2022-09-23T17:27:08.808Z,100474.47
2022-09-23T17:29:38.322Z,100474.66
2022-09-23T17:32:09.490Z,100477.63
2022-09-23T17:34:39.052Z,100477.63
2022-09-23T17:37:08.567Z,100475.47
2022-09-23T17:39:38.193Z,100467.78
2022-09-23T17:42:10.344Z,100469.97
2022-09-23T17:44:39.897Z,100460.53
2022-09-23T17:47:09.501Z,100464.31
2022-09-23T17:49:39.027Z,100456.66
2022-09-23T17:52:08.728Z,100454.19
2022-09-23T17:54:38.603Z,100453.44
2022-09-23T17:57:10.837Z,100458.88
2022-09-23T17:59:40.395Z,100470.44
2022-09-23T18:02:14.943Z,100469.78
2022-09-23T18:04:45.188Z,100470.84
2022-09-23T18:07:14.724Z,100465.84
2022-09-23T18:09:44.287Z,100457.19
2022-09-23T18:12:17.004Z,100461.03
2022-09-23T18:14:48.283Z,100456.00
2022-09-23T18:17:18.349Z,100457.91
2022-09-23T18:19:49.333Z,100455.53
2022-09-23T18:22:18.933Z,100455.75
2022-09-23T18:24:48.501Z,100453.25
2022-09-23T18:27:20.612Z,100462.41
2022-09-23T18:29:50.127Z,100455.56
2022-09-23T18:32:19.659Z,100454.06
2022-09-23T18:34:49.199Z,100451.63
2022-09-23T18:37:18.792Z,100449.22
2022-09-23T18:39:48.635Z,100448.75
2022-09-23T18:42:20.712Z,100458.44
2022-09-23T18:44:54.277Z,100460.72
2022-09-23T18:47:36.049Z,100465.06
2022-09-23T18:50:18.126Z,100468.41
2022-09-23T18:52:48.236Z,100462.16
2022-09-23T18:55:17.833Z,100461.50
2022-09-23T18:57:51.098Z,100456.31
2022-09-23T19:00:20.831Z,100460.03
2022-09-23T19:02:50.524Z,100458.59
2022-09-23T19:05:20.108Z,100462.31
2022-09-23T19:07:49.639Z,100467.72
2022-09-23T19:10:19.361Z,100461.66
2022-09-23T19:12:51.514Z,100464.66
2022-09-23T19:15:21.055Z,100464.78
2022-09-23T19:17:50.810Z,100464.09
2022-09-23T19:20:20.830Z,100465.22
2022-09-23T19:22:50.438Z,100466.25
2022-09-23T19:25:20.106Z,100474.31
2022-09-23T19:27:52.469Z,100471.00
2022-09-23T19:30:22.082Z,100477.31
2022-09-23T19:32:51.699Z,100474.88
2022-09-23T19:35:21.290Z,100474.00
2022-09-23T19:37:50.832Z,100471.63
2022-09-23T19:40:21.160Z,100471.81
2022-09-23T19:42:55.041Z,100471.63
2022-09-23T19:45:25.018Z,100469.34
2022-09-23T19:47:57.282Z,100466.03
2022-09-23T19:50:27.054Z,100467.91
2022-09-23T19:52:56.587Z,100470.66
2022-09-23T19:55:26.182Z,100461.94
2022-09-23T19:57:58.409Z,100456.81
2022-09-23T20:00:28.162Z,100461.47
2022-09-23T20:02:58.602Z,100459.75
2022-09-23T20:05:29.545Z,100457.97
2022-09-23T20:07:59.540Z,100455.56
2022-09-23T20:10:29.255Z,100451.47
2022-09-23T20:13:02.086Z,100455.25
2022-09-23T20:15:31.713Z,100447.31
2022-09-23T20:18:01.454Z,100445.75
2022-09-23T20:20:31.879Z,100445.84
2022-09-23T20:23:01.464Z,100439.44
2022-09-23T20:25:51.077Z,100443.00
2022-09-23T20:28:21.341Z,100443.97
2022-09-23T20:30:51.002Z,100444.25
2022-09-23T20:33:22.298Z,100443.41
2022-09-23T20:35:53.587Z,100439.03
2022-09-23T20:38:23.092Z,100439.97
2022-09-23T20:40:57.447Z,100436.56
2022-09-23T20:43:29.932Z,100437.59
2022-09-23T20:45:59.476Z,100434.19
2022-09-23T20:48:28.991Z,100434.34
2022-09-23T20:51:02.927Z,100428.28
2022-09-23T20:53:32.696Z,100434.53
2022-09-23T20:56:03.575Z,100432.75
2022-09-23T20:58:37.215Z,100424.88
2022-09-23T21:01:10.700Z,100427.63
2022-09-23T21:03:42.042Z,100431.28
2022-09-23T21:06:13.934Z,100423.44
2022-09-23T21:08:44.487Z,100427.88
2022-09-23T21:11:15.674Z,100427.97
2022-09-23T21:13:51.032Z,100425.31
2022-09-23T21:16:22.531Z,100429.78
2022-09-23T21:18:53.639Z,100430.03
2022-09-23T21:21:23.797Z,100429.31
2022-09-23T21:23:54.157Z,100424.03
2022-09-23T21:26:25.654Z,100426.69
2022-09-23T21:28:59.355Z,100424.13
2022-09-23T21:31:31.265Z,100417.94
2022-09-23T21:34:03.191Z,100416.25
2022-09-23T21:36:34.570Z,100415.47
2022-09-23T21:39:04.482Z,100420.69
2022-09-23T21:41:34.384Z,100422.66
2022-09-23T21:44:08.458Z,100418.31
2022-09-23T21:46:39.174Z,100423.63
2022-09-23T21:49:09.155Z,100416.69
2022-09-23T21:51:40.821Z,100418.56
2022-09-23T21:54:15.622Z,100418.56
2022-09-23T21:56:45.921Z,100418.66
2022-09-23T21:59:18.059Z,100418.84
2022-09-23T22:01:53.948Z,100419.69
2022-09-23T22:04:24.210Z,100415.41
2022-09-23T22:06:54.037Z,100420.69
2022-09-23T22:09:24.170Z,100417.28
2022-09-23T22:12:09.484Z,100420.88
2022-09-23T22:14:42.862Z,100415.69
2022-09-23T22:17:14.521Z,100419.19
2022-09-23T22:19:47.143Z,100413.97
2022-09-23T22:22:18.762Z,100413.13
2022-09-23T22:24:49.632Z,100416.69
2022-09-23T22:27:21.308Z,100410.53
2022-09-23T22:30:05.948Z,100416.69
2022-09-23T22:32:54.396Z,100414.03
2022-09-23T22:35:24.782Z,100415.84
2022-09-23T22:37:54.581Z,100407.91
2022-09-23T22:40:24.548Z,100399.19
2022-09-23T22:42:54.298Z,100401.00
2022-09-23T22:45:26.775Z,100407.22
2022-09-23T22:47:56.327Z,100406.38
2022-09-23T22:50:26.052Z,100402.13
2022-09-23T22:52:55.871Z,100400.38
2022-09-23T22:55:25.539Z,100396.03
2022-09-23T22:57:55.316Z,100396.97
2022-09-23T23:00:27.941Z,100399.72
2022-09-23T23:02:59.077Z,100401.59
2022-09-23T23:05:28.627Z,100403.47
2022-09-23T23:07:58.183Z,100404.69
2022-09-23T23:10:27.993Z,100402.97
2022-09-23T23:12:59.114Z,100400.38
2022-09-23T23:15:31.346Z,100409.13
2022-09-23T23:18:00.977Z,100406.47
2022-09-23T23:20:30.715Z,100413.56
2022-09-23T23:23:02.698Z,100411.06
2022-09-23T23:25:32.455Z,100405.75
2022-09-23T23:28:02.062Z,100411.91
2022-09-23T23:30:35.908Z,100403.22
2022-09-23T23:33:05.460Z,100405.00
2022-09-23T23:35:35.098Z,100401.50
2022-09-23T23:38:10.361Z,100398.94
2022-09-23T23:40:40.374Z,100396.22
2022-09-23T23:43:10.488Z,100394.41
2022-09-23T23:45:43.644Z,100390.06
2022-09-23T23:48:13.473Z,100388.38
2022-09-23T23:50:43.195Z,100390.16
2022-09-23T23:53:13.179Z,100386.66
2022-09-23T23:55:42.835Z,100385.72
2022-09-23T23:58:12.383Z,100379.56
